Accueil
METAR-TAF:

METAR-TAF

Aéroports :

Buochs, Suisse

latitude: 46-58-28N, longitude: 8-23-49E, altitude: 449 m

Observation

Le bulletin a été fait il y a 26 minutes, à 11:50 UTC
Vent 4 kt de nord, variant entre ouest/nord-ouest et nord/nord-est
Température 4°C
Humidité 81%
Pression 1016 hPa
Visibilité 10 km ou plus
Nuages fragmentés à une hauteur de 1900 ft

METAR: LSZC 191150Z AUTO 35004KT 290V020 9999 BKN019 04/01 Q1016

Heure: 13:16 (12:16 UTC)

Prévision

Le bulletin a été fait il y a 51 minutes, à 11:25 UTC
Prévision valable du 19 à 12 UTC au 19 à 21 UTC
Vent 1 kt de direction variable
Visibilité 10 km ou plus
Ciel couvert à une hauteur de 1900 ft

TAF: LSZC 191125Z 1912/1921 VRB01KT 9999 OVC019

Observations et prévisions météorologiques de plus de 4000 aéroports (messages METAR et TAF).

Les stations disponibles sont représentées par des disques jaunes et rouges sur la carte.

Passer la souris dessus pour voir le nom de la station.

Cliquer dessus pour voir les observations et prévisions météorologiques.

Pour changer de carte: cliquez sur les boutons verts avec une croix noire pour zoomer, sur le bouton vert avec un tiret pour effectuer un zoom arrière, ou sur les flèches vertes pour les cartes adjacentes.


METAR-TAF: